sensor_id;sensor_type;location;lat;lon;timestamp;P1;P2;P0
62846;PMS5003;49477;35.676;139.586;2023-05-10T00:00:05;29;26;
62846;PMS5003;49477;35.676;139.586;2023-05-10T00:02:36;20;18;
62846;PMS5003;49477;35.676;139.586;2023-05-10T00:05:05;20;19;
62846;PMS5003;49477;35.676;139.586;2023-05-10T00:07:35;26;22;
62846;PMS5003;49477;35.676;139.586;2023-05-10T00:10:05;22;18;
62846;PMS5003;49477;35.676;139.586;2023-05-10T00:12:35;20;19;
62846;PMS5003;49477;35.676;139.586;2023-05-10T00:15:04;25;20;
62846;PMS5003;49477;35.676;139.586;2023-05-10T00:17:36;22;21;
62846;PMS5003;49477;35.676;139.586;2023-05-10T00:20:06;23;20;
62846;PMS5003;49477;35.676;139.586;2023-05-10T00:22:36;25;22;
62846;PMS5003;49477;35.676;139.586;2023-05-10T00:25:06;24;20;
62846;PMS5003;49477;35.676;139.586;2023-05-10T00:27:36;24;21;
62846;PMS5003;49477;35.676;139.586;2023-05-10T00:30:06;20;17;
62846;PMS5003;49477;35.676;139.586;2023-05-10T00:32:36;17;16;
62846;PMS5003;49477;35.676;139.586;2023-05-10T00:35:05;25;20;
62846;PMS5003;49477;35.676;139.586;2023-05-10T00:37:35;22;21;
62846;PMS5003;49477;35.676;139.586;2023-05-10T00:40:04;25;20;
62846;PMS5003;49477;35.676;139.586;2023-05-10T00:42:34;20;18;
62846;PMS5003;49477;35.676;139.586;2023-05-10T00:45:04;27;19;
62846;PMS5003;49477;35.676;139.586;2023-05-10T00:47:35;20;18;
62846;PMS5003;49477;35.676;139.586;2023-05-10T00:50:05;18;15;
62846;PMS5003;49477;35.676;139.586;2023-05-10T00:52:35;18;18;
62846;PMS5003;49477;35.676;139.586;2023-05-10T00:55:04;18;15;
62846;PMS5003;49477;35.676;139.586;2023-05-10T00:57:35;26;20;
62846;PMS5003;49477;35.676;139.586;2023-05-10T01:00:05;22;21;
62846;PMS5003;49477;35.676;139.586;2023-05-10T01:02:34;21;17;
62846;PMS5003;49477;35.676;139.586;2023-05-10T01:05:04;19;17;
62846;PMS5003;49477;35.676;139.586;2023-05-10T01:07:33;18;16;
62846;PMS5003;49477;35.676;139.586;2023-05-10T01:10:04;19;16;
62846;PMS5003;49477;35.676;139.586;2023-05-10T01:12:34;19;18;
62846;PMS5003;49477;35.676;139.586;2023-05-10T01:15:07;17;16;
62846;PMS5003;49477;35.676;139.586;2023-05-10T01:17:38;15;15;
62846;PMS5003;49477;35.676;139.586;2023-05-10T01:20:10;23;22;
62846;PMS5003;49477;35.676;139.586;2023-05-10T01:22:51;27;20;
62846;PMS5003;49477;35.676;139.586;2023-05-10T01:25:18;27;20;
62846;PMS5003;49477;35.676;139.586;2023-05-10T01:28:09;25;19;
62846;PMS5003;49477;35.676;139.586;2023-05-10T01:30:58;20;19;
62846;PMS5003;49477;35.676;139.586;2023-05-10T01:33:47;26;23;
62846;PMS5003;49477;35.676;139.586;2023-05-10T01:36:23;19;18;
62846;PMS5003;49477;35.676;139.586;2023-05-10T01:39:01;18;16;
62846;PMS5003;49477;35.676;139.586;2023-05-10T01:41:39;21;19;
62846;PMS5003;49477;35.676;139.586;2023-05-10T01:44:18;19;18;
62846;PMS5003;49477;35.676;139.586;2023-05-10T01:46:56;19;19;
62846;PMS5003;49477;35.676;139.586;2023-05-10T01:49:31;21;20;
62846;PMS5003;49477;35.676;139.586;2023-05-10T01:52:06;22;21;
62846;PMS5003;49477;35.676;139.586;2023-05-10T01:54:36;19;19;
62846;PMS5003;49477;35.676;139.586;2023-05-10T01:57:10;24;23;
62846;PMS5003;49477;35.676;139.586;2023-05-10T01:59:42;19;19;
62846;PMS5003;49477;35.676;139.586;2023-05-10T02:02:12;20;20;
62846;PMS5003;49477;35.676;139.586;2023-05-10T02:04:44;23;18;
62846;PMS5003;49477;35.676;139.586;2023-05-10T02:07:14;17;17;
62846;PMS5003;49477;35.676;139.586;2023-05-10T02:09:44;20;17;
62846;PMS5003;49477;35.676;139.586;2023-05-10T02:12:15;25;22;
62846;PMS5003;49477;35.676;139.586;2023-05-10T02:14:45;20;19;
62846;PMS5003;49477;35.676;139.586;2023-05-10T02:17:16;22;19;
62846;PMS5003;49477;35.676;139.586;2023-05-10T02:19:46;19;18;
62846;PMS5003;49477;35.676;139.586;2023-05-10T02:22:16;18;18;
62846;PMS5003;49477;35.676;139.586;2023-05-10T02:24:46;16;16;
62846;PMS5003;49477;35.676;139.586;2023-05-10T02:27:17;16;14;
62846;PMS5003;49477;35.676;139.586;2023-05-10T02:29:47;16;14;
62846;PMS5003;49477;35.676;139.586;2023-05-10T02:32:19;16;15;
62846;PMS5003;49477;35.676;139.586;2023-05-10T02:34:49;18;16;
62846;PMS5003;49477;35.676;139.586;2023-05-10T02:37:19;15;15;
62846;PMS5003;49477;35.676;139.586;2023-05-10T02:39:50;21;20;
62846;PMS5003;49477;35.676;139.586;2023-05-10T02:42:23;16;16;
62846;PMS5003;49477;35.676;139.586;2023-05-10T02:44:54;21;19;
62846;PMS5003;49477;35.676;139.586;2023-05-10T02:47:27;17;16;
62846;PMS5003;49477;35.676;139.586;2023-05-10T02:49:56;17;17;
62846;PMS5003;49477;35.676;139.586;2023-05-10T02:52:27;22;17;
62846;PMS5003;49477;35.676;139.586;2023-05-10T02:54:58;21;16;
62846;PMS5003;49477;35.676;139.586;2023-05-10T02:57:31;15;15;
62846;PMS5003;49477;35.676;139.586;2023-05-10T03:00:03;22;20;
62846;PMS5003;49477;35.676;139.586;2023-05-10T03:02:33;22;18;
62846;PMS5003;49477;35.676;139.586;2023-05-10T03:05:02;19;17;
62846;PMS5003;49477;35.676;139.586;2023-05-10T03:07:31;19;17;
62846;PMS5003;49477;35.676;139.586;2023-05-10T03:10:01;17;16;
62846;PMS5003;49477;35.676;139.586;2023-05-10T03:12:33;18;17;
62846;PMS5003;49477;35.676;139.586;2023-05-10T03:15:17;15;14;
62846;PMS5003;49477;35.676;139.586;2023-05-10T03:18:06;17;15;
62846;PMS5003;49477;35.676;139.586;2023-05-10T03:20:41;18;16;
62846;PMS5003;49477;35.676;139.586;2023-05-10T03:23:21;17;15;
62846;PMS5003;49477;35.676;139.586;2023-05-10T03:25:54;17;15;
62846;PMS5003;49477;35.676;139.586;2023-05-10T03:28:24;19;16;
62846;PMS5003;49477;35.676;139.586;2023-05-10T03:30:54;19;17;
62846;PMS5003;49477;35.676;139.586;2023-05-10T03:33:23;15;14;
62846;PMS5003;49477;35.676;139.586;2023-05-10T03:35:52;17;16;
62846;PMS5003;49477;35.676;139.586;2023-05-10T03:38:22;18;14;
62846;PMS5003;49477;35.676;139.586;2023-05-10T03:40:52;20;19;
62846;PMS5003;49477;35.676;139.586;2023-05-10T03:43:21;19;18;
62846;PMS5003;49477;35.676;139.586;2023-05-10T03:45:50;15;15;
62846;PMS5003;49477;35.676;139.586;2023-05-10T03:48:19;16;16;
62846;PMS5003;49477;35.676;139.586;2023-05-10T03:50:48;20;18;
62846;PMS5003;49477;35.676;139.586;2023-05-10T03:53:17;19;17;
62846;PMS5003;49477;35.676;139.586;2023-05-10T03:55:46;19;17;
62846;PMS5003;49477;35.676;139.586;2023-05-10T03:58:15;15;14;
62846;PMS5003;49477;35.676;139.586;2023-05-10T04:00:44;17;14;
62846;PMS5003;49477;35.676;139.586;2023-05-10T04:03:13;16;14;
62846;PMS5003;49477;35.676;139.586;2023-05-10T04:05:43;15;14;
62846;PMS5003;49477;35.676;139.586;2023-05-10T04:08:12;15;14;
62846;PMS5003;49477;35.676;139.586;2023-05-10T04:10:42;17;13;
62846;PMS5003;49477;35.676;139.586;2023-05-10T04:13:11;17;14;
62846;PMS5003;49477;35.676;139.586;2023-05-10T04:15:40;18;17;
62846;PMS5003;49477;35.676;139.586;2023-05-10T04:18:09;17;15;
62846;PMS5003;49477;35.676;139.586;2023-05-10T04:20:38;19;17;
62846;PMS5003;49477;35.676;139.586;2023-05-10T04:23:08;17;17;
62846;PMS5003;49477;35.676;139.586;2023-05-10T04:25:37;17;15;
62846;PMS5003;49477;35.676;139.586;2023-05-10T04:28:06;17;17;
62846;PMS5003;49477;35.676;139.586;2023-05-10T04:30:35;18;18;
62846;PMS5003;49477;35.676;139.586;2023-05-10T04:33:04;18;14;
62846;PMS5003;49477;35.676;139.586;2023-05-10T04:35:34;17;17;
62846;PMS5003;49477;35.676;139.586;2023-05-10T04:38:03;21;18;
62846;PMS5003;49477;35.676;139.586;2023-05-10T04:40:34;17;16;
62846;PMS5003;49477;35.676;139.586;2023-05-10T04:43:03;17;17;
62846;PMS5003;49477;35.676;139.586;2023-05-10T04:45:32;20;19;
62846;PMS5003;49477;35.676;139.586;2023-05-10T04:48:02;23;19;
62846;PMS5003;49477;35.676;139.586;2023-05-10T04:50:31;23;19;
62846;PMS5003;49477;35.676;139.586;2023-05-10T04:53:01;17;15;
62846;PMS5003;49477;35.676;139.586;2023-05-10T04:55:31;18;16;
62846;PMS5003;49477;35.676;139.586;2023-05-10T04:58:01;19;19;
62846;PMS5003;49477;35.676;139.586;2023-05-10T05:00:30;19;17;
62846;PMS5003;49477;35.676;139.586;2023-05-10T05:03:01;20;17;
62846;PMS5003;49477;35.676;139.586;2023-05-10T05:05:31;17;17;
62846;PMS5003;49477;35.676;139.586;2023-05-10T05:08:00;22;20;
62846;PMS5003;49477;35.676;139.586;2023-05-10T05:10:29;17;16;
62846;PMS5003;49477;35.676;139.586;2023-05-10T05:12:59;16;16;
62846;PMS5003;49477;35.676;139.586;2023-05-10T05:15:28;17;17;
62846;PMS5003;49477;35.676;139.586;2023-05-10T05:17:59;20;18;
62846;PMS5003;49477;35.676;139.586;2023-05-10T05:20:31;17;15;
62846;PMS5003;49477;35.676;139.586;2023-05-10T05:23:00;18;15;
62846;PMS5003;49477;35.676;139.586;2023-05-10T05:25:30;15;15;
62846;PMS5003;49477;35.676;139.586;2023-05-10T05:28:00;15;15;
62846;PMS5003;49477;35.676;139.586;2023-05-10T05:30:29;16;14;
62846;PMS5003;49477;35.676;139.586;2023-05-10T05:32:59;18;18;
62846;PMS5003;49477;35.676;139.586;2023-05-10T05:35:28;18;15;
62846;PMS5003;49477;35.676;139.586;2023-05-10T05:37:57;19;15;
62846;PMS5003;49477;35.676;139.586;2023-05-10T05:40:27;20;18;
62846;PMS5003;49477;35.676;139.586;2023-05-10T05:42:56;15;14;
62846;PMS5003;49477;35.676;139.586;2023-05-10T05:45:26;15;15;
62846;PMS5003;49477;35.676;139.586;2023-05-10T05:47:55;17;14;
62846;PMS5003;49477;35.676;139.586;2023-05-10T05:50:24;20;18;
62846;PMS5003;49477;35.676;139.586;2023-05-10T05:52:54;17;14;
62846;PMS5003;49477;35.676;139.586;2023-05-10T05:55:24;14;13;
62846;PMS5003;49477;35.676;139.586;2023-05-10T05:57:53;16;16;
62846;PMS5003;49477;35.676;139.586;2023-05-10T06:00:23;16;15;
62846;PMS5003;49477;35.676;139.586;2023-05-10T06:02:53;15;13;
62846;PMS5003;49477;35.676;139.586;2023-05-10T06:05:22;13;13;
62846;PMS5003;49477;35.676;139.586;2023-05-10T06:07:51;16;16;
62846;PMS5003;49477;35.676;139.586;2023-05-10T06:10:20;14;11;
62846;PMS5003;49477;35.676;139.586;2023-05-10T06:12:50;14;14;
62846;PMS5003;49477;35.676;139.586;2023-05-10T06:15:19;13;13;
62846;PMS5003;49477;35.676;139.586;2023-05-10T06:17:49;14;13;
62846;PMS5003;49477;35.676;139.586;2023-05-10T06:20:19;15;13;
62846;PMS5003;49477;35.676;139.586;2023-05-10T06:22:54;16;14;
62846;PMS5003;49477;35.676;139.586;2023-05-10T06:25:29;14;14;
62846;PMS5003;49477;35.676;139.586;2023-05-10T06:27:59;18;16;
62846;PMS5003;49477;35.676;139.586;2023-05-10T06:30:29;15;15;
62846;PMS5003;49477;35.676;139.586;2023-05-10T06:32:58;15;14;
62846;PMS5003;49477;35.676;139.586;2023-05-10T06:35:28;15;12;
62846;PMS5003;49477;35.676;139.586;2023-05-10T06:37:57;15;14;
62846;PMS5003;49477;35.676;139.586;2023-05-10T06:40:27;17;12;
62846;PMS5003;49477;35.676;139.586;2023-05-10T06:42:56;18;17;
62846;PMS5003;49477;35.676;139.586;2023-05-10T06:45:25;16;14;
62846;PMS5003;49477;35.676;139.586;2023-05-10T06:47:54;14;14;
62846;PMS5003;49477;35.676;139.586;2023-05-10T06:50:24;17;14;
62846;PMS5003;49477;35.676;139.586;2023-05-10T06:52:53;16;14;
62846;PMS5003;49477;35.676;139.586;2023-05-10T06:55:23;15;13;
62846;PMS5003;49477;35.676;139.586;2023-05-10T06:57:53;14;13;
62846;PMS5003;49477;35.676;139.586;2023-05-10T07:00:22;17;15;
62846;PMS5003;49477;35.676;139.586;2023-05-10T07:02:52;17;16;
62846;PMS5003;49477;35.676;139.586;2023-05-10T07:05:21;15;15;
62846;PMS5003;49477;35.676;139.586;2023-05-10T07:07:51;14;12;
62846;PMS5003;49477;35.676;139.586;2023-05-10T07:10:20;17;16;
62846;PMS5003;49477;35.676;139.586;2023-05-10T07:12:49;16;16;
62846;PMS5003;49477;35.676;139.586;2023-05-10T07:15:19;20;17;
62846;PMS5003;49477;35.676;139.586;2023-05-10T07:17:48;14;14;
62846;PMS5003;49477;35.676;139.586;2023-05-10T07:20:17;14;13;
62846;PMS5003;49477;35.676;139.586;2023-05-10T07:22:47;12;12;
62846;PMS5003;49477;35.676;139.586;2023-05-10T07:25:16;18;14;
62846;PMS5003;49477;35.676;139.586;2023-05-10T07:27:45;14;13;
62846;PMS5003;49477;35.676;139.586;2023-05-10T07:30:15;15;14;
62846;PMS5003;49477;35.676;139.586;2023-05-10T07:32:44;20;19;
62846;PMS5003;49477;35.676;139.586;2023-05-10T07:35:13;16;15;
62846;PMS5003;49477;35.676;139.586;2023-05-10T07:37:43;20;17;
62846;PMS5003;49477;35.676;139.586;2023-05-10T07:40:12;19;18;
62846;PMS5003;49477;35.676;139.586;2023-05-10T07:42:42;19;17;
62846;PMS5003;49477;35.676;139.586;2023-05-10T07:45:11;19;16;
62846;PMS5003;49477;35.676;139.586;2023-05-10T07:47:41;14;14;
62846;PMS5003;49477;35.676;139.586;2023-05-10T07:50:10;17;17;
62846;PMS5003;49477;35.676;139.586;2023-05-10T07:52:39;20;15;
62846;PMS5003;49477;35.676;139.586;2023-05-10T07:55:09;20;20;
62846;PMS5003;49477;35.676;139.586;2023-05-10T07:57:39;16;15;
62846;PMS5003;49477;35.676;139.586;2023-05-10T08:00:11;19;19;
62846;PMS5003;49477;35.676;139.586;2023-05-10T08:02:44;22;20;
62846;PMS5003;49477;35.676;139.586;2023-05-10T08:05:13;19;17;
62846;PMS5003;49477;35.676;139.586;2023-05-10T08:07:43;17;17;
62846;PMS5003;49477;35.676;139.586;2023-05-10T08:10:11;15;15;
62846;PMS5003;49477;35.676;139.586;2023-05-10T08:12:41;16;15;
62846;PMS5003;49477;35.676;139.586;2023-05-10T08:15:11;19;19;
62846;PMS5003;49477;35.676;139.586;2023-05-10T08:17:42;18;17;
62846;PMS5003;49477;35.676;139.586;2023-05-10T08:20:11;15;15;
62846;PMS5003;49477;35.676;139.586;2023-05-10T08:22:41;20;17;
62846;PMS5003;49477;35.676;139.586;2023-05-10T08:25:10;19;19;
62846;PMS5003;49477;35.676;139.586;2023-05-10T08:27:39;16;16;
62846;PMS5003;49477;35.676;139.586;2023-05-10T08:30:09;18;16;
62846;PMS5003;49477;35.676;139.586;2023-05-10T08:32:40;20;19;
62846;PMS5003;49477;35.676;139.586;2023-05-10T08:35:09;19;16;
62846;PMS5003;49477;35.676;139.586;2023-05-10T08:37:38;17;17;
62846;PMS5003;49477;35.676;139.586;2023-05-10T08:40:08;20;18;
62846;PMS5003;49477;35.676;139.586;2023-05-10T08:42:40;19;19;
62846;PMS5003;49477;35.676;139.586;2023-05-10T08:45:16;19;19;
62846;PMS5003;49477;35.676;139.586;2023-05-10T08:47:47;21;21;
62846;PMS5003;49477;35.676;139.586;2023-05-10T08:50:17;21;18;
62846;PMS5003;49477;35.676;139.586;2023-05-10T08:52:48;19;19;
62846;PMS5003;49477;35.676;139.586;2023-05-10T08:55:23;21;18;
62846;PMS5003;49477;35.676;139.586;2023-05-10T08:57:53;18;18;
62846;PMS5003;49477;35.676;139.586;2023-05-10T09:00:22;20;19;
62846;PMS5003;49477;35.676;139.586;2023-05-10T09:02:51;23;21;
62846;PMS5003;49477;35.676;139.586;2023-05-10T09:05:21;23;18;
62846;PMS5003;49477;35.676;139.586;2023-05-10T09:07:50;16;15;
62846;PMS5003;49477;35.676;139.586;2023-05-10T09:10:20;21;19;
62846;PMS5003;49477;35.676;139.586;2023-05-10T09:12:50;23;21;
62846;PMS5003;49477;35.676;139.586;2023-05-10T09:15:21;24;22;
62846;PMS5003;49477;35.676;139.586;2023-05-10T09:17:51;19;16;
62846;PMS5003;49477;35.676;139.586;2023-05-10T09:20:21;28;22;
62846;PMS5003;49477;35.676;139.586;2023-05-10T09:22:51;23;22;
62846;PMS5003;49477;35.676;139.586;2023-05-10T09:25:20;19;17;
62846;PMS5003;49477;35.676;139.586;2023-05-10T09:27:50;24;20;
62846;PMS5003;49477;35.676;139.586;2023-05-10T09:30:24;24;22;
62846;PMS5003;49477;35.676;139.586;2023-05-10T09:32:54;24;21;
62846;PMS5003;49477;35.676;139.586;2023-05-10T09:35:25;21;20;
62846;PMS5003;49477;35.676;139.586;2023-05-10T09:37:56;20;19;
62846;PMS5003;49477;35.676;139.586;2023-05-10T09:40:28;23;21;
62846;PMS5003;49477;35.676;139.586;2023-05-10T09:42:58;20;20;
62846;PMS5003;49477;35.676;139.586;2023-05-10T09:45:30;18;18;
62846;PMS5003;49477;35.676;139.586;2023-05-10T09:48:00;17;17;
62846;PMS5003;49477;35.676;139.586;2023-05-10T09:50:31;19;18;
62846;PMS5003;49477;35.676;139.586;2023-05-10T09:53:01;20;20;
62846;PMS5003;49477;35.676;139.586;2023-05-10T09:55:39;20;20;
62846;PMS5003;49477;35.676;139.586;2023-05-10T09:58:11;16;15;
62846;PMS5003;49477;35.676;139.586;2023-05-10T10:00:42;18;18;
62846;PMS5003;49477;35.676;139.586;2023-05-10T10:03:13;22;21;
62846;PMS5003;49477;35.676;139.586;2023-05-10T10:05:44;23;20;
62846;PMS5003;49477;35.676;139.586;2023-05-10T10:08:15;20;18;
62846;PMS5003;49477;35.676;139.586;2023-05-10T10:10:45;19;18;
62846;PMS5003;49477;35.676;139.586;2023-05-10T10:13:15;19;19;
62846;PMS5003;49477;35.676;139.586;2023-05-10T10:15:44;24;21;
62846;PMS5003;49477;35.676;139.586;2023-05-10T10:18:14;19;16;
62846;PMS5003;49477;35.676;139.586;2023-05-10T10:20:45;20;18;
62846;PMS5003;49477;35.676;139.586;2023-05-10T10:23:14;21;19;
62846;PMS5003;49477;35.676;139.586;2023-05-10T10:25:44;21;21;
62846;PMS5003;49477;35.676;139.586;2023-05-10T10:28:19;18;17;
62846;PMS5003;49477;35.676;139.586;2023-05-10T10:30:54;19;17;
62846;PMS5003;49477;35.676;139.586;2023-05-10T10:33:30;20;19;
62846;PMS5003;49477;35.676;139.586;2023-05-10T10:36:07;20;19;
62846;PMS5003;49477;35.676;139.586;2023-05-10T10:38:37;18;17;
62846;PMS5003;49477;35.676;139.586;2023-05-10T10:41:28;19;17;
62846;PMS5003;49477;35.676;139.586;2023-05-10T10:46:13;17;16;
62846;PMS5003;49477;35.676;139.586;2023-05-10T10:48:47;14;12;
62846;PMS5003;49477;35.676;139.586;2023-05-10T10:51:18;15;15;
62846;PMS5003;49477;35.676;139.586;2023-05-10T10:53:48;20;18;
62846;PMS5003;49477;35.676;139.586;2023-05-10T10:56:17;18;18;
62846;PMS5003;49477;35.676;139.586;2023-05-10T10:58:51;19;19;
62846;PMS5003;49477;35.676;139.586;2023-05-10T11:01:20;20;17;
62846;PMS5003;49477;35.676;139.586;2023-05-10T11:04:21;22;19;
62846;PMS5003;49477;35.676;139.586;2023-05-10T11:06:51;19;19;
62846;PMS5003;49477;35.676;139.586;2023-05-10T11:09:46;22;19;
62846;PMS5003;49477;35.676;139.586;2023-05-10T11:12:16;23;21;
62846;PMS5003;49477;35.676;139.586;2023-05-10T11:14:49;19;18;
62846;PMS5003;49477;35.676;139.586;2023-05-10T11:17:22;19;19;
62846;PMS5003;49477;35.676;139.586;2023-05-10T11:20:10;16;16;
62846;PMS5003;49477;35.676;139.586;2023-05-10T11:22:57;17;17;
62846;PMS5003;49477;35.676;139.586;2023-05-10T11:25:41;23;21;
62846;PMS5003;49477;35.676;139.586;2023-05-10T11:28:12;22;22;
62846;PMS5003;49477;35.676;139.586;2023-05-10T11:30:43;23;20;
62846;PMS5003;49477;35.676;139.586;2023-05-10T11:33:15;20;19;
62846;PMS5003;49477;35.676;139.586;2023-05-10T11:35:45;22;19;
62846;PMS5003;49477;35.676;139.586;2023-05-10T11:38:14;21;19;
62846;PMS5003;49477;35.676;139.586;2023-05-10T11:40:44;27;21;
62846;PMS5003;49477;35.676;139.586;2023-05-10T11:43:12;25;20;
62846;PMS5003;49477;35.676;139.586;2023-05-10T11:45:42;27;24;
62846;PMS5003;49477;35.676;139.586;2023-05-10T11:48:12;25;19;
62846;PMS5003;49477;35.676;139.586;2023-05-10T11:50:44;21;18;
62846;PMS5003;49477;35.676;139.586;2023-05-10T11:53:14;25;22;
62846;PMS5003;49477;35.676;139.586;2023-05-10T11:55:44;23;22;
62846;PMS5003;49477;35.676;139.586;2023-05-10T11:58:13;24;22;
62846;PMS5003;49477;35.676;139.586;2023-05-10T12:00:42;23;20;
62846;PMS5003;49477;35.676;139.586;2023-05-10T12:03:13;23;22;
62846;PMS5003;49477;35.676;139.586;2023-05-10T12:05:47;24;24;
62846;PMS5003;49477;35.676;139.586;2023-05-10T12:08:21;21;18;
62846;PMS5003;49477;35.676;139.586;2023-05-10T12:10:51;23;18;
62846;PMS5003;49477;35.676;139.586;2023-05-10T12:13:31;23;19;
62846;PMS5003;49477;35.676;139.586;2023-05-10T12:16:12;21;21;
62846;PMS5003;49477;35.676;139.586;2023-05-10T12:18:43;20;18;
62846;PMS5003;49477;35.676;139.586;2023-05-10T12:21:13;21;20;
62846;PMS5003;49477;35.676;139.586;2023-05-10T12:23:43;20;17;
62846;PMS5003;49477;35.676;139.586;2023-05-10T12:26:15;28;23;
62846;PMS5003;49477;35.676;139.586;2023-05-10T12:28:44;17;16;
62846;PMS5003;49477;35.676;139.586;2023-05-10T12:31:14;16;15;
62846;PMS5003;49477;35.676;139.586;2023-05-10T12:33:43;23;21;
62846;PMS5003;49477;35.676;139.586;2023-05-10T12:36:13;18;18;
62846;PMS5003;49477;35.676;139.586;2023-05-10T12:38:43;27;25;
62846;PMS5003;49477;35.676;139.586;2023-05-10T12:41:16;21;17;
62846;PMS5003;49477;35.676;139.586;2023-05-10T12:43:46;24;20;
62846;PMS5003;49477;35.676;139.586;2023-05-10T12:46:16;24;23;
62846;PMS5003;49477;35.676;139.586;2023-05-10T12:48:45;20;19;
62846;PMS5003;49477;35.676;139.586;2023-05-10T12:51:15;20;19;
62846;PMS5003;49477;35.676;139.586;2023-05-10T12:53:44;15;15;
62846;PMS5003;49477;35.676;139.586;2023-05-10T12:56:14;23;22;
62846;PMS5003;49477;35.676;139.586;2023-05-10T12:58:43;17;17;
62846;PMS5003;49477;35.676;139.586;2023-05-10T13:01:12;20;17;
62846;PMS5003;49477;35.676;139.586;2023-05-10T13:03:42;17;17;
62846;PMS5003;49477;35.676;139.586;2023-05-10T13:06:12;19;16;
62846;PMS5003;49477;35.676;139.586;2023-05-10T13:08:42;17;17;
62846;PMS5003;49477;35.676;139.586;2023-05-10T13:11:12;21;20;
62846;PMS5003;49477;35.676;139.586;2023-05-10T13:13:42;21;20;
62846;PMS5003;49477;35.676;139.586;2023-05-10T13:16:11;25;19;
62846;PMS5003;49477;35.676;139.586;2023-05-10T13:18:40;20;16;
62846;PMS5003;49477;35.676;139.586;2023-05-10T13:21:10;18;17;
62846;PMS5003;49477;35.676;139.586;2023-05-10T13:23:40;18;18;
62846;PMS5003;49477;35.676;139.586;2023-05-10T13:26:11;19;18;
62846;PMS5003;49477;35.676;139.586;2023-05-10T13:28:41;22;21;
62846;PMS5003;49477;35.676;139.586;2023-05-10T13:31:11;20;19;
62846;PMS5003;49477;35.676;139.586;2023-05-10T13:33:40;20;20;
62846;PMS5003;49477;35.676;139.586;2023-05-10T13:36:09;22;21;
62846;PMS5003;49477;35.676;139.586;2023-05-10T13:38:38;20;19;
62846;PMS5003;49477;35.676;139.586;2023-05-10T13:41:07;21;20;
62846;PMS5003;49477;35.676;139.586;2023-05-10T13:43:37;24;21;
62846;PMS5003;49477;35.676;139.586;2023-05-10T13:46:06;21;21;
62846;PMS5003;49477;35.676;139.586;2023-05-10T13:48:35;20;19;
62846;PMS5003;49477;35.676;139.586;2023-05-10T13:51:04;23;21;
62846;PMS5003;49477;35.676;139.586;2023-05-10T13:53:34;23;22;
62846;PMS5003;49477;35.676;139.586;2023-05-10T13:56:03;26;21;
62846;PMS5003;49477;35.676;139.586;2023-05-10T13:58:33;29;24;
62846;PMS5003;49477;35.676;139.586;2023-05-10T14:01:02;22;19;
62846;PMS5003;49477;35.676;139.586;2023-05-10T14:03:32;20;20;
62846;PMS5003;49477;35.676;139.586;2023-05-10T14:06:01;21;20;
62846;PMS5003;49477;35.676;139.586;2023-05-10T14:08:29;23;22;
62846;PMS5003;49477;35.676;139.586;2023-05-10T14:10:58;25;21;
62846;PMS5003;49477;35.676;139.586;2023-05-10T14:13:28;24;22;
62846;PMS5003;49477;35.676;139.586;2023-05-10T14:15:57;26;21;
62846;PMS5003;49477;35.676;139.586;2023-05-10T14:18:26;21;19;
62846;PMS5003;49477;35.676;139.586;2023-05-10T14:20:55;29;25;
62846;PMS5003;49477;35.676;139.586;2023-05-10T14:23:24;24;23;
62846;PMS5003;49477;35.676;139.586;2023-05-10T14:25:54;24;22;
62846;PMS5003;49477;35.676;139.586;2023-05-10T14:28:23;25;23;
62846;PMS5003;49477;35.676;139.586;2023-05-10T14:30:52;21;21;
62846;PMS5003;49477;35.676;139.586;2023-05-10T14:33:22;21;21;
62846;PMS5003;49477;35.676;139.586;2023-05-10T14:35:51;25;20;
62846;PMS5003;49477;35.676;139.586;2023-05-10T14:38:21;21;19;
62846;PMS5003;49477;35.676;139.586;2023-05-10T14:40:51;23;22;
62846;PMS5003;49477;35.676;139.586;2023-05-10T14:43:20;19;18;
62846;PMS5003;49477;35.676;139.586;2023-05-10T14:45:49;24;20;
62846;PMS5003;49477;35.676;139.586;2023-05-10T14:48:19;26;21;
62846;PMS5003;49477;35.676;139.586;2023-05-10T14:50:54;26;23;
62846;PMS5003;49477;35.676;139.586;2023-05-10T14:53:23;27;22;
62846;PMS5003;49477;35.676;139.586;2023-05-10T14:55:52;24;22;
62846;PMS5003;49477;35.676;139.586;2023-05-10T14:58:22;25;25;
62846;PMS5003;49477;35.676;139.586;2023-05-10T15:00:51;24;24;
62846;PMS5003;49477;35.676;139.586;2023-05-10T15:03:21;25;23;
62846;PMS5003;49477;35.676;139.586;2023-05-10T15:05:50;25;24;
62846;PMS5003;49477;35.676;139.586;2023-05-10T15:08:18;22;22;
62846;PMS5003;49477;35.676;139.586;2023-05-10T15:10:48;25;21;
62846;PMS5003;49477;35.676;139.586;2023-05-10T15:13:17;24;22;
62846;PMS5003;49477;35.676;139.586;2023-05-10T15:15:46;22;20;
62846;PMS5003;49477;35.676;139.586;2023-05-10T15:18:15;25;22;
62846;PMS5003;49477;35.676;139.586;2023-05-10T15:20:44;29;26;
62846;PMS5003;49477;35.676;139.586;2023-05-10T15:23:13;24;22;
62846;PMS5003;49477;35.676;139.586;2023-05-10T15:25:42;23;22;
62846;PMS5003;49477;35.676;139.586;2023-05-10T15:28:11;29;21;
62846;PMS5003;49477;35.676;139.586;2023-05-10T15:30:41;26;22;
62846;PMS5003;49477;35.676;139.586;2023-05-10T15:33:10;21;21;
62846;PMS5003;49477;35.676;139.586;2023-05-10T15:35:39;19;18;
62846;PMS5003;49477;35.676;139.586;2023-05-10T15:38:08;23;21;
62846;PMS5003;49477;35.676;139.586;2023-05-10T15:40:38;23;20;
62846;PMS5003;49477;35.676;139.586;2023-05-10T15:43:07;23;21;
62846;PMS5003;49477;35.676;139.586;2023-05-10T15:45:36;17;17;
62846;PMS5003;49477;35.676;139.586;2023-05-10T15:48:06;21;21;
62846;PMS5003;49477;35.676;139.586;2023-05-10T15:50:35;23;19;
62846;PMS5003;49477;35.676;139.586;2023-05-10T15:53:04;19;18;
62846;PMS5003;49477;35.676;139.586;2023-05-10T15:55:34;21;19;
62846;PMS5003;49477;35.676;139.586;2023-05-10T15:58:03;19;18;
62846;PMS5003;49477;35.676;139.586;2023-05-10T16:00:33;18;15;
62846;PMS5003;49477;35.676;139.586;2023-05-10T16:03:02;23;19;
62846;PMS5003;49477;35.676;139.586;2023-05-10T16:05:31;17;16;
62846;PMS5003;49477;35.676;139.586;2023-05-10T16:08:01;18;18;
62846;PMS5003;49477;35.676;139.586;2023-05-10T16:10:31;24;20;